Boring, Oregon
Current Conditions -  °F | °C
As of 7:53 AM on Thursday 23 Oct 2014 (Local Time) from KTTD Reporting Station
Light Rain Light Rain  
Wind Chill: 55°   Ceiling: 1500
Heat Index: 55°   Visibility: 10mi
Dew Point: 53°   Wind: 3mph
Humidity: 93%   Direction: 30°NNE
Pressure: 29.77"   Gusts: NA
Location:  45.43°N, 122.38°W
Report Text: KTTD 231453Z 03003KT 10SM -RA BKN015 BKN043 OVC070 13/12 A2977 RMK AO2 SLP082 P0001 60010 T01280117 53001
Loading
Personal Weather Stations






























Interactive Weather Map
Tropical Storm Tracking
New forecast layout! Learn more

10-Day Weather Forecast

Advertisements
Track Severe Weather on mobile